sensor_id;sensor_type;location;lat;lon;timestamp;P1;durP1;ratioP1;P2;durP2;ratioP2
35891;SDS011;21993;42.672;23.296;2022-07-29T00:02:09;11.17;;;10.03;;
35891;SDS011;21993;42.672;23.296;2022-07-29T00:04:35;11.77;;;9.60;;
35891;SDS011;21993;42.672;23.296;2022-07-29T00:07:00;12.10;;;9.53;;
35891;SDS011;21993;42.672;23.296;2022-07-29T00:09:26;10.90;;;9.30;;
35891;SDS011;21993;42.672;23.296;2022-07-29T00:11:52;10.60;;;9.43;;
35891;SDS011;21993;42.672;23.296;2022-07-29T00:14:20;10.10;;;8.83;;
35891;SDS011;21993;42.672;23.296;2022-07-29T00:16:45;11.40;;;9.50;;
35891;SDS011;21993;42.672;23.296;2022-07-29T00:19:10;12.90;;;9.87;;
35891;SDS011;21993;42.672;23.296;2022-07-29T00:21:36;11.30;;;8.57;;
35891;SDS011;21993;42.672;23.296;2022-07-29T00:24:01;10.57;;;8.37;;
35891;SDS011;21993;42.672;23.296;2022-07-29T00:26:27;9.87;;;8.87;;
35891;SDS011;21993;42.672;23.296;2022-07-29T00:28:56;11.33;;;9.03;;
35891;SDS011;21993;42.672;23.296;2022-07-29T00:31:23;8.83;;;7.93;;
35891;SDS011;21993;42.672;23.296;2022-07-29T00:33:48;10.07;;;8.20;;
35891;SDS011;21993;42.672;23.296;2022-07-29T00:36:14;10.90;;;8.80;;
35891;SDS011;21993;42.672;23.296;2022-07-29T00:38:39;10.67;;;8.23;;
35891;SDS011;21993;42.672;23.296;2022-07-29T00:41:09;8.57;;;7.77;;
35891;SDS011;21993;42.672;23.296;2022-07-29T00:43:34;10.17;;;8.37;;
35891;SDS011;21993;42.672;23.296;2022-07-29T00:46:00;11.00;;;8.47;;
35891;SDS011;21993;42.672;23.296;2022-07-29T00:48:25;10.83;;;9.13;;
35891;SDS011;21993;42.672;23.296;2022-07-29T00:50:51;10.13;;;8.87;;
35891;SDS011;21993;42.672;23.296;2022-07-29T00:53:16;10.33;;;9.13;;
35891;SDS011;21993;42.672;23.296;2022-07-29T00:55:42;12.70;;;10.93;;
35891;SDS011;21993;42.672;23.296;2022-07-29T00:58:07;11.97;;;10.60;;
35891;SDS011;21993;42.672;23.296;2022-07-29T01:00:33;17.40;;;12.47;;
35891;SDS011;21993;42.672;23.296;2022-07-29T01:02:59;15.97;;;12.20;;
35891;SDS011;21993;42.672;23.296;2022-07-29T01:05:26;14.80;;;12.30;;
35891;SDS011;21993;42.672;23.296;2022-07-29T01:07:53;15.37;;;12.90;;
35891;SDS011;21993;42.672;23.296;2022-07-29T01:10:20;13.93;;;12.43;;
35891;SDS011;21993;42.672;23.296;2022-07-29T01:12:48;17.57;;;13.30;;
35891;SDS011;21993;42.672;23.296;2022-07-29T01:15:15;17.73;;;12.57;;
35891;SDS011;21993;42.672;23.296;2022-07-29T01:17:50;12.90;;;11.53;;
35891;SDS011;21993;42.672;23.296;2022-07-29T01:28:41;12.97;;;11.53;;
35891;SDS011;21993;42.672;23.296;2022-07-29T01:31:27;16.20;;;12.00;;
35891;SDS011;21993;42.672;23.296;2022-07-29T01:33:58;15.13;;;12.90;;
35891;SDS011;21993;42.672;23.296;2022-07-29T01:39:07;14.77;;;12.73;;
35891;SDS011;21993;42.672;23.296;2022-07-29T01:41:37;16.87;;;13.50;;
35891;SDS011;21993;42.672;23.296;2022-07-29T01:44:17;14.93;;;13.33;;
35891;SDS011;21993;42.672;23.296;2022-07-29T01:46:54;15.43;;;12.87;;
35891;SDS011;21993;42.672;23.296;2022-07-29T01:49:27;14.80;;;12.60;;
35891;SDS011;21993;42.672;23.296;2022-07-29T01:51:57;14.83;;;13.23;;
35891;SDS011;21993;42.672;23.296;2022-07-29T01:54:41;16.00;;;13.23;;
35891;SDS011;21993;42.672;23.296;2022-07-29T01:57:13;15.47;;;13.70;;
35891;SDS011;21993;42.672;23.296;2022-07-29T01:59:42;15.47;;;13.53;;
35891;SDS011;21993;42.672;23.296;2022-07-29T02:02:10;16.10;;;14.40;;
35891;SDS011;21993;42.672;23.296;2022-07-29T02:04:38;16.60;;;13.20;;
35891;SDS011;21993;42.672;23.296;2022-07-29T02:07:07;16.33;;;13.60;;
35891;SDS011;21993;42.672;23.296;2022-07-29T02:09:38;18.23;;;14.53;;
35891;SDS011;21993;42.672;23.296;2022-07-29T02:12:06;15.53;;;13.70;;
35891;SDS011;21993;42.672;23.296;2022-07-29T02:14:36;17.87;;;13.97;;
35891;SDS011;21993;42.672;23.296;2022-07-29T02:17:04;15.87;;;13.47;;
35891;SDS011;21993;42.672;23.296;2022-07-29T02:19:31;17.30;;;13.07;;
35891;SDS011;21993;42.672;23.296;2022-07-29T02:21:57;18.53;;;13.80;;
35891;SDS011;21993;42.672;23.296;2022-07-29T02:24:25;17.40;;;14.00;;
35891;SDS011;21993;42.672;23.296;2022-07-29T02:26:52;18.23;;;14.23;;
35891;SDS011;21993;42.672;23.296;2022-07-29T02:29:21;14.30;;;12.80;;
35891;SDS011;21993;42.672;23.296;2022-07-29T02:31:48;14.20;;;12.70;;
35891;SDS011;21993;42.672;23.296;2022-07-29T02:34:15;16.07;;;12.87;;
35891;SDS011;21993;42.672;23.296;2022-07-29T02:36:43;16.87;;;13.73;;
35891;SDS011;21993;42.672;23.296;2022-07-29T02:39:10;16.67;;;13.50;;
35891;SDS011;21993;42.672;23.296;2022-07-29T02:44:14;16.77;;;13.00;;
35891;SDS011;21993;42.672;23.296;2022-07-29T02:46:46;15.83;;;13.27;;
35891;SDS011;21993;42.672;23.296;2022-07-29T02:49:29;17.60;;;14.00;;
35891;SDS011;21993;42.672;23.296;2022-07-29T02:52:04;16.03;;;14.13;;
35891;SDS011;21993;42.672;23.296;2022-07-29T02:54:39;16.47;;;13.60;;
35891;SDS011;21993;42.672;23.296;2022-07-29T02:57:11;17.67;;;12.87;;
35891;SDS011;21993;42.672;23.296;2022-07-29T02:59:42;16.47;;;14.77;;
35891;SDS011;21993;42.672;23.296;2022-07-29T03:02:10;15.53;;;13.67;;
35891;SDS011;21993;42.672;23.296;2022-07-29T03:04:37;15.17;;;13.57;;
35891;SDS011;21993;42.672;23.296;2022-07-29T03:07:07;17.87;;;14.33;;
35891;SDS011;21993;42.672;23.296;2022-07-29T03:09:34;16.77;;;13.70;;
35891;SDS011;21993;42.672;23.296;2022-07-29T03:12:01;18.03;;;13.10;;
35891;SDS011;21993;42.672;23.296;2022-07-29T03:14:29;21.97;;;14.23;;
35891;SDS011;21993;42.672;23.296;2022-07-29T03:16:56;14.33;;;12.83;;
35891;SDS011;21993;42.672;23.296;2022-07-29T03:19:22;16.67;;;13.30;;
35891;SDS011;21993;42.672;23.296;2022-07-29T03:21:48;16.97;;;14.03;;
35891;SDS011;21993;42.672;23.296;2022-07-29T03:24:24;18.03;;;12.77;;
35891;SDS011;21993;42.672;23.296;2022-07-29T03:26:50;16.53;;;13.40;;
35891;SDS011;21993;42.672;23.296;2022-07-29T03:29:16;14.87;;;12.87;;
35891;SDS011;21993;42.672;23.296;2022-07-29T03:31:41;18.20;;;13.67;;
35891;SDS011;21993;42.672;23.296;2022-07-29T03:34:06;16.60;;;13.13;;
35891;SDS011;21993;42.672;23.296;2022-07-29T03:36:32;15.67;;;11.60;;
35891;SDS011;21993;42.672;23.296;2022-07-29T03:38:58;14.50;;;12.37;;
35891;SDS011;21993;42.672;23.296;2022-07-29T03:41:24;19.33;;;12.97;;
35891;SDS011;21993;42.672;23.296;2022-07-29T03:43:50;15.80;;;12.83;;
35891;SDS011;21993;42.672;23.296;2022-07-29T03:46:18;15.10;;;12.57;;
35891;SDS011;21993;42.672;23.296;2022-07-29T03:48:48;13.33;;;11.63;;
35891;SDS011;21993;42.672;23.296;2022-07-29T03:51:17;17.90;;;12.40;;
35891;SDS011;21993;42.672;23.296;2022-07-29T03:53:43;14.20;;;11.90;;
35891;SDS011;21993;42.672;23.296;2022-07-29T03:56:08;19.30;;;12.40;;
35891;SDS011;21993;42.672;23.296;2022-07-29T03:58:36;14.17;;;12.37;;
35891;SDS011;21993;42.672;23.296;2022-07-29T04:01:03;17.17;;;13.87;;
35891;SDS011;21993;42.672;23.296;2022-07-29T04:03:29;18.10;;;14.33;;
35891;SDS011;21993;42.672;23.296;2022-07-29T04:06:02;16.10;;;14.23;;
35891;SDS011;21993;42.672;23.296;2022-07-29T04:08:33;19.23;;;14.80;;
35891;SDS011;21993;42.672;23.296;2022-07-29T04:10:59;17.87;;;14.17;;
35891;SDS011;21993;42.672;23.296;2022-07-29T04:13:25;17.10;;;13.77;;
35891;SDS011;21993;42.672;23.296;2022-07-29T04:15:51;17.67;;;14.47;;
35891;SDS011;21993;42.672;23.296;2022-07-29T04:18:16;22.57;;;15.00;;
35891;SDS011;21993;42.672;23.296;2022-07-29T04:20:42;18.33;;;13.50;;
35891;SDS011;21993;42.672;23.296;2022-07-29T04:23:07;19.23;;;14.13;;
35891;SDS011;21993;42.672;23.296;2022-07-29T04:25:33;20.37;;;15.40;;
35891;SDS011;21993;42.672;23.296;2022-07-29T04:28:01;18.77;;;14.57;;
35891;SDS011;21993;42.672;23.296;2022-07-29T04:30:26;19.63;;;15.70;;
35891;SDS011;21993;42.672;23.296;2022-07-29T04:32:52;19.83;;;13.17;;
35891;SDS011;21993;42.672;23.296;2022-07-29T04:35:18;13.80;;;11.73;;
35891;SDS011;21993;42.672;23.296;2022-07-29T04:37:44;16.53;;;11.50;;
35891;SDS011;21993;42.672;23.296;2022-07-29T04:40:10;17.97;;;12.07;;
35891;SDS011;21993;42.672;23.296;2022-07-29T04:42:37;18.43;;;12.70;;
35891;SDS011;21993;42.672;23.296;2022-07-29T04:45:02;13.77;;;12.03;;
35891;SDS011;21993;42.672;23.296;2022-07-29T04:47:28;19.10;;;11.90;;
35891;SDS011;21993;42.672;23.296;2022-07-29T04:49:54;21.50;;;14.17;;
35891;SDS011;21993;42.672;23.296;2022-07-29T04:52:21;15.53;;;10.93;;
35891;SDS011;21993;42.672;23.296;2022-07-29T04:54:46;12.23;;;9.13;;
35891;SDS011;21993;42.672;23.296;2022-07-29T04:57:12;11.10;;;9.37;;
35891;SDS011;21993;42.672;23.296;2022-07-29T04:59:37;13.67;;;10.03;;
35891;SDS011;21993;42.672;23.296;2022-07-29T05:02:03;16.73;;;13.60;;
35891;SDS011;21993;42.672;23.296;2022-07-29T05:04:28;14.90;;;10.23;;
35891;SDS011;21993;42.672;23.296;2022-07-29T05:06:54;9.90;;;8.90;;
35891;SDS011;21993;42.672;23.296;2022-07-29T05:09:19;12.23;;;8.90;;
35891;SDS011;21993;42.672;23.296;2022-07-29T05:11:44;13.33;;;9.70;;
35891;SDS011;21993;42.672;23.296;2022-07-29T05:14:10;14.27;;;9.03;;
35891;SDS011;21993;42.672;23.296;2022-07-29T05:16:36;10.67;;;8.87;;
35891;SDS011;21993;42.672;23.296;2022-07-29T05:19:01;20.23;;;15.80;;
35891;SDS011;21993;42.672;23.296;2022-07-29T05:21:27;12.60;;;8.30;;
35891;SDS011;21993;42.672;23.296;2022-07-29T05:23:52;9.00;;;8.00;;
35891;SDS011;21993;42.672;23.296;2022-07-29T05:26:17;9.70;;;8.43;;
35891;SDS011;21993;42.672;23.296;2022-07-29T05:28:43;11.33;;;8.33;;
35891;SDS011;21993;42.672;23.296;2022-07-29T05:31:08;12.87;;;9.13;;
35891;SDS011;21993;42.672;23.296;2022-07-29T05:33:34;9.17;;;8.27;;
35891;SDS011;21993;42.672;23.296;2022-07-29T05:35:59;13.33;;;10.23;;
35891;SDS011;21993;42.672;23.296;2022-07-29T05:38:25;10.20;;;8.97;;
35891;SDS011;21993;42.672;23.296;2022-07-29T05:40:50;13.70;;;9.13;;
35891;SDS011;21993;42.672;23.296;2022-07-29T05:43:16;13.97;;;9.63;;
35891;SDS011;21993;42.672;23.296;2022-07-29T05:45:41;14.00;;;10.87;;
35891;SDS011;21993;42.672;23.296;2022-07-29T05:48:07;16.93;;;12.17;;
35891;SDS011;21993;42.672;23.296;2022-07-29T05:50:32;15.70;;;10.40;;
35891;SDS011;21993;42.672;23.296;2022-07-29T05:52:57;11.30;;;10.10;;
35891;SDS011;21993;42.672;23.296;2022-07-29T05:55:23;12.20;;;9.33;;
35891;SDS011;21993;42.672;23.296;2022-07-29T05:57:48;16.07;;;12.67;;
35891;SDS011;21993;42.672;23.296;2022-07-29T06:00:14;10.90;;;9.80;;
35891;SDS011;21993;42.672;23.296;2022-07-29T06:02:39;11.87;;;8.97;;
35891;SDS011;21993;42.672;23.296;2022-07-29T06:05:05;11.60;;;10.40;;
35891;SDS011;21993;42.672;23.296;2022-07-29T06:07:33;15.57;;;9.57;;
35891;SDS011;21993;42.672;23.296;2022-07-29T06:09:59;18.43;;;10.33;;
35891;SDS011;21993;42.672;23.296;2022-07-29T06:12:24;11.23;;;8.70;;
35891;SDS011;21993;42.672;23.296;2022-07-29T06:14:50;9.87;;;8.57;;
35891;SDS011;21993;42.672;23.296;2022-07-29T06:17:16;11.27;;;8.20;;
35891;SDS011;21993;42.672;23.296;2022-07-29T06:19:42;13.20;;;9.03;;
35891;SDS011;21993;42.672;23.296;2022-07-29T06:22:07;22.67;;;18.57;;
35891;SDS011;21993;42.672;23.296;2022-07-29T06:24:32;11.27;;;9.97;;
35891;SDS011;21993;42.672;23.296;2022-07-29T06:26:58;10.13;;;9.13;;
35891;SDS011;21993;42.672;23.296;2022-07-29T06:29:23;10.03;;;7.13;;
35891;SDS011;21993;42.672;23.296;2022-07-29T06:31:49;10.77;;;9.17;;
35891;SDS011;21993;42.672;23.296;2022-07-29T06:34:14;10.33;;;7.57;;
35891;SDS011;21993;42.672;23.296;2022-07-29T06:36:41;8.63;;;6.80;;
35891;SDS011;21993;42.672;23.296;2022-07-29T06:39:06;11.40;;;6.53;;
35891;SDS011;21993;42.672;23.296;2022-07-29T06:41:32;7.97;;;6.87;;
35891;SDS011;21993;42.672;23.296;2022-07-29T06:43:58;9.03;;;6.60;;
35891;SDS011;21993;42.672;23.296;2022-07-29T06:46:24;12.37;;;7.73;;
35891;SDS011;21993;42.672;23.296;2022-07-29T06:48:50;9.57;;;8.27;;
35891;SDS011;21993;42.672;23.296;2022-07-29T06:51:16;11.13;;;7.63;;
35891;SDS011;21993;42.672;23.296;2022-07-29T06:53:42;8.47;;;7.13;;
35891;SDS011;21993;42.672;23.296;2022-07-29T06:56:07;9.50;;;7.37;;
35891;SDS011;21993;42.672;23.296;2022-07-29T06:58:34;8.63;;;7.73;;
35891;SDS011;21993;42.672;23.296;2022-07-29T07:01:01;8.93;;;6.63;;
35891;SDS011;21993;42.672;23.296;2022-07-29T07:03:28;8.90;;;7.13;;
35891;SDS011;21993;42.672;23.296;2022-07-29T07:05:54;7.57;;;6.87;;
35891;SDS011;21993;42.672;23.296;2022-07-29T07:08:20;7.07;;;6.37;;
35891;SDS011;21993;42.672;23.296;2022-07-29T07:10:47;8.30;;;7.17;;
35891;SDS011;21993;42.672;23.296;2022-07-29T07:13:13;8.03;;;7.23;;
35891;SDS011;21993;42.672;23.296;2022-07-29T07:15:39;8.70;;;6.87;;
35891;SDS011;21993;42.672;23.296;2022-07-29T07:18:05;7.73;;;7.03;;
35891;SDS011;21993;42.672;23.296;2022-07-29T07:20:32;9.53;;;7.40;;
35891;SDS011;21993;42.672;23.296;2022-07-29T07:23:00;8.57;;;6.80;;
35891;SDS011;21993;42.672;23.296;2022-07-29T07:25:26;9.03;;;7.07;;
35891;SDS011;21993;42.672;23.296;2022-07-29T07:27:51;8.47;;;7.10;;
35891;SDS011;21993;42.672;23.296;2022-07-29T07:30:17;9.20;;;7.10;;
35891;SDS011;21993;42.672;23.296;2022-07-29T07:32:42;9.67;;;7.63;;
35891;SDS011;21993;42.672;23.296;2022-07-29T07:35:08;10.53;;;7.33;;
35891;SDS011;21993;42.672;23.296;2022-07-29T07:37:34;7.70;;;7.00;;
35891;SDS011;21993;42.672;23.296;2022-07-29T07:40:00;11.13;;;8.17;;
35891;SDS011;21993;42.672;23.296;2022-07-29T07:42:26;9.53;;;6.47;;
35891;SDS011;21993;42.672;23.296;2022-07-29T07:44:52;9.73;;;7.27;;
35891;SDS011;21993;42.672;23.296;2022-07-29T07:47:17;11.03;;;6.70;;
35891;SDS011;21993;42.672;23.296;2022-07-29T07:49:47;9.67;;;6.20;;
35891;SDS011;21993;42.672;23.296;2022-07-29T07:52:14;6.93;;;6.23;;
35891;SDS011;21993;42.672;23.296;2022-07-29T07:54:41;8.33;;;6.40;;
35891;SDS011;21993;42.672;23.296;2022-07-29T07:57:07;6.73;;;6.03;;
35891;SDS011;21993;42.672;23.296;2022-07-29T07:59:33;8.73;;;5.93;;
35891;SDS011;21993;42.672;23.296;2022-07-29T08:01:58;7.83;;;5.70;;
35891;SDS011;21993;42.672;23.296;2022-07-29T08:04:25;6.90;;;5.57;;
35891;SDS011;21993;42.672;23.296;2022-07-29T08:06:50;7.60;;;6.17;;
35891;SDS011;21993;42.672;23.296;2022-07-29T08:09:16;6.97;;;5.50;;
35891;SDS011;21993;42.672;23.296;2022-07-29T08:11:41;6.60;;;5.43;;
35891;SDS011;21993;42.672;23.296;2022-07-29T08:14:06;5.90;;;5.30;;
35891;SDS011;21993;42.672;23.296;2022-07-29T08:16:32;6.33;;;5.33;;
35891;SDS011;21993;42.672;23.296;2022-07-29T08:18:57;5.87;;;5.07;;
35891;SDS011;21993;42.672;23.296;2022-07-29T08:21:23;5.80;;;5.30;;
35891;SDS011;21993;42.672;23.296;2022-07-29T08:23:50;6.43;;;5.27;;
35891;SDS011;21993;42.672;23.296;2022-07-29T08:26:18;7.93;;;5.57;;
35891;SDS011;21993;42.672;23.296;2022-07-29T08:28:46;5.87;;;5.10;;
35891;SDS011;21993;42.672;23.296;2022-07-29T08:31:14;5.70;;;5.20;;
35891;SDS011;21993;42.672;23.296;2022-07-29T08:33:40;6.00;;;5.40;;
35891;SDS011;21993;42.672;23.296;2022-07-29T08:36:06;5.70;;;5.00;;
35891;SDS011;21993;42.672;23.296;2022-07-29T08:38:32;6.20;;;5.60;;
35891;SDS011;21993;42.672;23.296;2022-07-29T08:40:58;5.67;;;4.60;;
35891;SDS011;21993;42.672;23.296;2022-07-29T08:43:26;5.43;;;4.70;;
35891;SDS011;21993;42.672;23.296;2022-07-29T08:45:54;6.17;;;5.20;;
35891;SDS011;21993;42.672;23.296;2022-07-29T08:48:21;5.17;;;4.70;;
35891;SDS011;21993;42.672;23.296;2022-07-29T08:50:48;5.63;;;5.00;;
35891;SDS011;21993;42.672;23.296;2022-07-29T08:53:18;5.67;;;5.10;;
35891;SDS011;21993;42.672;23.296;2022-07-29T08:55:44;5.53;;;5.03;;
35891;SDS011;21993;42.672;23.296;2022-07-29T08:58:11;8.93;;;7.60;;
35891;SDS011;21993;42.672;23.296;2022-07-29T09:00:46;6.03;;;4.70;;
35891;SDS011;21993;42.672;23.296;2022-07-29T09:03:17;5.07;;;4.67;;
35891;SDS011;21993;42.672;23.296;2022-07-29T09:05:45;5.83;;;4.90;;
35891;SDS011;21993;42.672;23.296;2022-07-29T09:08:12;5.03;;;4.53;;
35891;SDS011;21993;42.672;23.296;2022-07-29T09:10:39;5.90;;;5.30;;
35891;SDS011;21993;42.672;23.296;2022-07-29T09:13:04;5.60;;;5.17;;
35891;SDS011;21993;42.672;23.296;2022-07-29T09:15:30;7.17;;;4.90;;
35891;SDS011;21993;42.672;23.296;2022-07-29T09:17:55;6.00;;;5.50;;
35891;SDS011;21993;42.672;23.296;2022-07-29T09:20:23;11.57;;;5.67;;
35891;SDS011;21993;42.672;23.296;2022-07-29T09:22:51;7.03;;;6.27;;
35891;SDS011;21993;42.672;23.296;2022-07-29T09:25:34;5.33;;;4.83;;
35891;SDS011;21993;42.672;23.296;2022-07-29T09:28:07;6.23;;;4.60;;
35891;SDS011;21993;42.672;23.296;2022-07-29T09:30:50;7.27;;;5.00;;
35891;SDS011;21993;42.672;23.296;2022-07-29T09:33:17;5.97;;;5.37;;
35891;SDS011;21993;42.672;23.296;2022-07-29T09:35:43;7.00;;;4.90;;
35891;SDS011;21993;42.672;23.296;2022-07-29T09:38:09;4.93;;;4.53;;
35891;SDS011;21993;42.672;23.296;2022-07-29T09:40:39;6.27;;;4.63;;
35891;SDS011;21993;42.672;23.296;2022-07-29T09:43:12;6.73;;;4.80;;
35891;SDS011;21993;42.672;23.296;2022-07-29T09:45:38;5.13;;;4.70;;
35891;SDS011;21993;42.672;23.296;2022-07-29T09:48:14;5.27;;;4.77;;
35891;SDS011;21993;42.672;23.296;2022-07-29T09:50:42;6.07;;;5.03;;
35891;SDS011;21993;42.672;23.296;2022-07-29T09:53:09;6.13;;;4.57;;
35891;SDS011;21993;42.672;23.296;2022-07-29T09:55:48;6.10;;;4.77;;
35891;SDS011;21993;42.672;23.296;2022-07-29T10:00:44;7.37;;;5.43;;
35891;SDS011;21993;42.672;23.296;2022-07-29T10:03:10;7.03;;;4.70;;
35891;SDS011;21993;42.672;23.296;2022-07-29T10:05:37;8.33;;;5.67;;
35891;SDS011;21993;42.672;23.296;2022-07-29T10:08:03;5.70;;;5.20;;
35891;SDS011;21993;42.672;23.296;2022-07-29T10:10:29;6.23;;;5.67;;
35891;SDS011;21993;42.672;23.296;2022-07-29T10:13:02;7.37;;;5.60;;
35891;SDS011;21993;42.672;23.296;2022-07-29T10:15:30;7.93;;;5.30;;
35891;SDS011;21993;42.672;23.296;2022-07-29T10:17:57;8.13;;;5.97;;
35891;SDS011;21993;42.672;23.296;2022-07-29T10:20:25;8.23;;;5.50;;
35891;SDS011;21993;42.672;23.296;2022-07-29T10:22:52;6.60;;;5.37;;
35891;SDS011;21993;42.672;23.296;2022-07-29T10:25:18;6.37;;;5.50;;
35891;SDS011;21993;42.672;23.296;2022-07-29T10:27:45;6.27;;;5.43;;
35891;SDS011;21993;42.672;23.296;2022-07-29T10:30:14;5.67;;;4.80;;
35891;SDS011;21993;42.672;23.296;2022-07-29T10:44:08;6.37;;;5.73;;
35891;SDS011;21993;42.672;23.296;2022-07-29T10:46:39;6.17;;;5.57;;
35891;SDS011;21993;42.672;23.296;2022-07-29T10:59:46;7.30;;;6.60;;
35891;SDS011;21993;42.672;23.296;2022-07-29T11:07:24;6.97;;;6.20;;
35891;SDS011;21993;42.672;23.296;2022-07-29T11:15:03;8.57;;;6.77;;
35891;SDS011;21993;42.672;23.296;2022-07-29T11:17:47;7.70;;;6.20;;
35891;SDS011;21993;42.672;23.296;2022-07-29T11:23:27;7.23;;;6.40;;
35891;SDS011;21993;42.672;23.296;2022-07-29T11:34:16;7.30;;;6.70;;
35891;SDS011;21993;42.672;23.296;2022-07-29T11:39:34;8.87;;;6.53;;
35891;SDS011;21993;42.672;23.296;2022-07-29T11:44:55;6.80;;;6.07;;
35891;SDS011;21993;42.672;23.296;2022-07-29T11:47:23;7.53;;;6.20;;
35891;SDS011;21993;42.672;23.296;2022-07-29T11:49:50;6.57;;;5.97;;
35891;SDS011;21993;42.672;23.296;2022-07-29T11:52:16;6.77;;;6.17;;
35891;SDS011;21993;42.672;23.296;2022-07-29T11:54:42;6.87;;;6.13;;
35891;SDS011;21993;42.672;23.296;2022-07-29T11:57:08;6.67;;;6.17;;
35891;SDS011;21993;42.672;23.296;2022-07-29T11:59:41;6.97;;;6.27;;
35891;SDS011;21993;42.672;23.296;2022-07-29T12:02:08;7.10;;;5.90;;
35891;SDS011;21993;42.672;23.296;2022-07-29T12:04:34;9.27;;;6.80;;
35891;SDS011;21993;42.672;23.296;2022-07-29T12:07:12;7.23;;;6.53;;
35891;SDS011;21993;42.672;23.296;2022-07-29T12:09:38;6.50;;;5.90;;
35891;SDS011;21993;42.672;23.296;2022-07-29T12:12:04;6.60;;;6.00;;
35891;SDS011;21993;42.672;23.296;2022-07-29T12:14:30;6.60;;;6.00;;
35891;SDS011;21993;42.672;23.296;2022-07-29T12:16:58;6.93;;;5.93;;
35891;SDS011;21993;42.672;23.296;2022-07-29T12:19:28;6.37;;;5.77;;
35891;SDS011;21993;42.672;23.296;2022-07-29T12:21:54;6.83;;;6.13;;
35891;SDS011;21993;42.672;23.296;2022-07-29T12:24:20;8.27;;;6.03;;
35891;SDS011;21993;42.672;23.296;2022-07-29T12:26:59;7.03;;;6.33;;
35891;SDS011;21993;42.672;23.296;2022-07-29T12:29:25;6.67;;;6.07;;
35891;SDS011;21993;42.672;23.296;2022-07-29T12:31:54;7.88;;;7.07;;
35891;SDS011;21993;42.672;23.296;2022-07-29T12:34:22;11.73;;;6.43;;
35891;SDS011;21993;42.672;23.296;2022-07-29T12:36:49;7.10;;;6.27;;
35891;SDS011;21993;42.672;23.296;2022-07-29T12:39:18;7.33;;;6.60;;
35891;SDS011;21993;42.672;23.296;2022-07-29T12:41:43;6.70;;;6.20;;
35891;SDS011;21993;42.672;23.296;2022-07-29T12:44:09;9.77;;;6.17;;
35891;SDS011;21993;42.672;23.296;2022-07-29T12:46:35;7.53;;;6.73;;
35891;SDS011;21993;42.672;23.296;2022-07-29T12:49:00;6.63;;;6.13;;
35891;SDS011;21993;42.672;23.296;2022-07-29T12:56:37;7.70;;;6.47;;
35891;SDS011;21993;42.672;23.296;2022-07-29T12:59:19;7.43;;;6.63;;
35891;SDS011;21993;42.672;23.296;2022-07-29T13:01:46;6.87;;;6.33;;
35891;SDS011;21993;42.672;23.296;2022-07-29T13:04:27;7.40;;;6.37;;
35891;SDS011;21993;42.672;23.296;2022-07-29T13:07:04;6.73;;;6.13;;
35891;SDS011;21993;42.672;23.296;2022-07-29T13:09:44;7.27;;;6.57;;
35891;SDS011;21993;42.672;23.296;2022-07-29T13:12:13;7.17;;;6.47;;
35891;SDS011;21993;42.672;23.296;2022-07-29T13:14:41;6.70;;;6.10;;
35891;SDS011;21993;42.672;23.296;2022-07-29T13:22:08;7.40;;;6.70;;
35891;SDS011;21993;42.672;23.296;2022-07-29T13:24:45;7.07;;;6.47;;
35891;SDS011;21993;42.672;23.296;2022-07-29T13:27:15;6.83;;;6.23;;
35891;SDS011;21993;42.672;23.296;2022-07-29T13:29:42;7.23;;;6.53;;
35891;SDS011;21993;42.672;23.296;2022-07-29T13:32:08;7.37;;;6.67;;
35891;SDS011;21993;42.672;23.296;2022-07-29T13:34:33;6.60;;;6.07;;
35891;SDS011;21993;42.672;23.296;2022-07-29T13:36:58;7.53;;;6.80;;
35891;SDS011;21993;42.672;23.296;2022-07-29T13:39:24;7.17;;;6.50;;
35891;SDS011;21993;42.672;23.296;2022-07-29T13:41:49;7.67;;;6.10;;
35891;SDS011;21993;42.672;23.296;2022-07-29T13:44:16;7.77;;;6.00;;
35891;SDS011;21993;42.672;23.296;2022-07-29T13:46:41;7.33;;;6.63;;
35891;SDS011;21993;42.672;23.296;2022-07-29T13:49:07;6.87;;;5.80;;
35891;SDS011;21993;42.672;23.296;2022-07-29T13:51:32;8.82;;;6.88;;
35891;SDS011;21993;42.672;23.296;2022-07-29T13:53:58;6.23;;;5.63;;
35891;SDS011;21993;42.672;23.296;2022-07-29T13:56:23;6.70;;;6.10;;
35891;SDS011;21993;42.672;23.296;2022-07-29T13:58:49;7.13;;;6.53;;
35891;SDS011;21993;42.672;23.296;2022-07-29T14:01:14;10.63;;;6.63;;
35891;SDS011;21993;42.672;23.296;2022-07-29T14:03:40;6.97;;;6.27;;
35891;SDS011;21993;42.672;23.296;2022-07-29T14:06:08;7.53;;;6.23;;
35891;SDS011;21993;42.672;23.296;2022-07-29T14:08:33;7.07;;;6.47;;
35891;SDS011;21993;42.672;23.296;2022-07-29T14:10:59;7.13;;;6.53;;
35891;SDS011;21993;42.672;23.296;2022-07-29T14:13:25;7.07;;;6.47;;
35891;SDS011;21993;42.672;23.296;2022-07-29T14:15:50;7.20;;;6.50;;
35891;SDS011;21993;42.672;23.296;2022-07-29T14:18:16;7.77;;;7.07;;
35891;SDS011;21993;42.672;23.296;2022-07-29T14:20:41;6.80;;;6.23;;
35891;SDS011;21993;42.672;23.296;2022-07-29T14:23:07;6.70;;;6.20;;
35891;SDS011;21993;42.672;23.296;2022-07-29T14:25:32;11.50;;;6.63;;
35891;SDS011;21993;42.672;23.296;2022-07-29T14:27:58;7.37;;;6.77;;
35891;SDS011;21993;42.672;23.296;2022-07-29T14:30:23;8.10;;;7.07;;
35891;SDS011;21993;42.672;23.296;2022-07-29T14:32:49;7.43;;;6.73;;
35891;SDS011;21993;42.672;23.296;2022-07-29T14:35:14;6.83;;;6.27;;
35891;SDS011;21993;42.672;23.296;2022-07-29T14:37:40;6.70;;;6.13;;
35891;SDS011;21993;42.672;23.296;2022-07-29T14:40:06;7.53;;;6.70;;
35891;SDS011;21993;42.672;23.296;2022-07-29T14:42:33;9.93;;;6.13;;
35891;SDS011;21993;42.672;23.296;2022-07-29T14:44:58;7.07;;;6.37;;
35891;SDS011;21993;42.672;23.296;2022-07-29T14:47:24;8.70;;;7.33;;
35891;SDS011;21993;42.672;23.296;2022-07-29T14:49:49;7.00;;;6.23;;
35891;SDS011;21993;42.672;23.296;2022-07-29T14:52:15;8.20;;;6.43;;
35891;SDS011;21993;42.672;23.296;2022-07-29T14:54:40;7.07;;;6.47;;
35891;SDS011;21993;42.672;23.296;2022-07-29T14:57:06;8.47;;;7.10;;
35891;SDS011;21993;42.672;23.296;2022-07-29T14:59:31;7.03;;;6.33;;
35891;SDS011;21993;42.672;23.296;2022-07-29T15:01:57;7.63;;;6.93;;
35891;SDS011;21993;42.672;23.296;2022-07-29T15:04:23;7.83;;;6.53;;
35891;SDS011;21993;42.672;23.296;2022-07-29T15:06:48;6.93;;;6.27;;
35891;SDS011;21993;42.672;23.296;2022-07-29T15:09:14;9.00;;;6.47;;
35891;SDS011;21993;42.672;23.296;2022-07-29T15:11:39;7.10;;;6.50;;
35891;SDS011;21993;42.672;23.296;2022-07-29T15:14:05;8.23;;;6.57;;
35891;SDS011;21993;42.672;23.296;2022-07-29T15:16:31;7.53;;;6.80;;
35891;SDS011;21993;42.672;23.296;2022-07-29T15:18:57;8.87;;;6.67;;
35891;SDS011;21993;42.672;23.296;2022-07-29T15:21:23;7.70;;;7.00;;
35891;SDS011;21993;42.672;23.296;2022-07-29T15:23:49;7.70;;;6.77;;
35891;SDS011;21993;42.672;23.296;2022-07-29T15:26:14;8.67;;;6.83;;
35891;SDS011;21993;42.672;23.296;2022-07-29T15:28:40;7.57;;;6.70;;
35891;SDS011;21993;42.672;23.296;2022-07-29T15:31:05;7.93;;;7.23;;
35891;SDS011;21993;42.672;23.296;2022-07-29T15:33:31;6.57;;;6.07;;
35891;SDS011;21993;42.672;23.296;2022-07-29T15:35:58;8.07;;;7.27;;
35891;SDS011;21993;42.672;23.296;2022-07-29T15:38:23;7.20;;;6.47;;
35891;SDS011;21993;42.672;23.296;2022-07-29T15:40:49;7.87;;;6.67;;
35891;SDS011;21993;42.672;23.296;2022-07-29T15:43:14;8.03;;;7.20;;